SAZR/RSA METAR and TAF weather

Enter ICAO airport designator
Station Type Date Time Source
SAZR METAR 2019/04/16 12:23 UTC NOAA

SAZR 161223Z 36015KT 9000 SCT006 13/12 Q1019


Station Type Date Time Source
SAZR Decoded METAR 2019/04/16 12:23 UTC NOAA

Santa Rosa Aerodrome, Argentina (SAZR) 36-34S 064-16W 191M
Apr 16, 2019 - 08:23 AM EDT / 2019.04.16 1223 UTC
Wind: from the N (360 degrees) at 17 MPH (15 KT):0
Visibility: 5 mile(s):0
Sky conditions: partly cloudy
Temperature: 55 F (13 C)
Dew Point: 53 F (12 C)
Relative Humidity: 93%
Pressure (altimeter): 30.09 in. Hg (1019 hPa)
ob: SAZR 161223Z 36015KT 9000 SCT006 13/12 Q1019
cycle: 12

Station Type Date Time Source
SAZR TAF 2019/04/15 06:06 UTC NOAA

TAF TAF SAZR 150500Z 1506/1606 36005KT 9999 SCT040 BKN100 TX22/1518Z TN10/1510Z
BECMG 1518/1522 02010KT

Example: see airport list